METAR stanice u blizini

 

LYBE - Beograd / Surčin, Srbija
Ažurirano: 04/04/2020 06:00
Vedro
Vedro
 Pravac vetra ZJZ
Vetar: ZJZ 9 km/h
Temperatura: 2°C
Osećaj hladnoće: -1°C
Tačka rose: -2°C
Vlažnost: 75%
Pritisak: 1017 hPa
Pregled: Vedro
Vidljivost: greater than 10 km
2020/04/04 04:00 LYBE 040400Z 25005KT CAVOK 02/M02 Q1017 NOSIG
LYBT - Beograd / Batajnica, Srbija
Ažurirano: 04/04/2020 06:00
Vedro
Vedro
 Pravac vetra JJZ
Vetar: JJZ 2 km/h
Temperatura: -1°C
Tačka rose: -4°C
Vlažnost: 80%
Pritisak: 1017 hPa
Pregled: Vedro
Vidljivost: greater than 10 km
2020/04/04 04:00 LYBT 040400Z 20001KT CAVOK M01/M04 Q1017 NOSIG
LYVR - Vršac, Srbija
Ažurirano: 04/04/2020 06:00
Vedro
Vedro
 Pravac vetra varies
Vetar: varies 4 km/h
Temperatura: -4°C
Tačka rose: -5°C
Vlažnost: 93%
Pritisak: 1017 hPa
Pregled: Vedro
Vidljivost: greater than 10 km
2020/04/04 04:00 LYVR 040400Z AUTO VRB02KT CAVOK M04/M05 Q1017
 
LYKV - Lađevci, Srbija
Ažurirano: 04/04/2020 06:00
Vedro
Vedro
 Pravac vetra SSI
Vetar: SSI 4 km/h
Temperatura: 5°C
Tačka rose: 5°C
Vlažnost: 100%
Pritisak: 1017 hPa
Pregled: Vedro
Vidljivost: greater than 10 km
2020/04/04 04:00 LYKV 040400Z 03002KT CAVOK 05/05 Q1017 NOSIG
LYNI - Niš, Srbija
Ažurirano: 04/04/2020 06:00
Vedro
Vedro
 Pravac vetra SSZ
Vetar: SSZ 13 km/h
Temperatura: 8°C
Osećaj hladnoće: 6°C
Tačka rose: 2°C
Vlažnost: 66%
Pritisak: 1016 hPa
Pregled: Vedro
Vidljivost: greater than 10 km
2020/04/04 04:00 LYNI 040400Z 33007KT 300V010 CAVOK 08/02 Q1016 NOSIG
BKPR - Priština, Srbija
Ažurirano: 04/04/2020 06:00
Slaba kiša, Pretežno oblačno
Slaba kiša, Pretežno oblačno
 Pravac vetra varies
Vetar: varies 4 km/h
Temperatura: 5°C
Tačka rose: 3°C
Vlažnost: 87%
Pritisak: 1015 hPa
Pregled: Light Rain
Oblaci: Mostly Cloudy
Vidljivost: 10 km
Cloud details: Partly Cloudy 1067 m
Mostly Cloudy 2134 m
2020/04/04 04:00 BKPR 040400Z VRB02KT 9999 -RA SCT035 BKN070 05/03 Q1015 NOSIG
 
LHPP - Pecs / Pogany, Hungary
Ažurirano: 03/04/2020 18:45
NOT Current
Vedro
Vedro
 Pravac vetra S
Vetar: S 9 km/h
Temperatura: 13°C
Tačka rose: -2°C
Vlažnost: 36%
Pritisak: 1013 hPa
Pregled: Vedro
Vidljivost: greater than 10 km
2020/04/03 16:45 LHPP 031645Z 36005KT CAVOK 13/M02 Q1013
LHUD - Szeged, Hungary
Ažurirano: 04/07/2019 01:45
NOT Current
Vedro
Vedro
 Pravac vetra S
Vetar: S 7 km/h
Temperatura: 18°C
Tačka rose: 13°C
Vlažnost: 73%
Pritisak: 1019 hPa
Pregled: Vedro
Vidljivost: greater than 10 km
2019/07/03 23:45 LHUD 032345Z 35004KT CAVOK 18/13 Q1019
LRTR - Timisoara, Romania
Ažurirano: 04/04/2020 06:00
Vedro
Vedro
 Pravac vetra SSI
Vetar: SSI 6 km/h
Temperatura: 0°C
Tačka rose: -3°C
Vlažnost: 80%
Pritisak: 1017 hPa
Pregled: Vedro
Vidljivost: greater than 10 km
2020/04/04 04:00 LRTR 040400Z 03003KT CAVOK 00/M03 Q1017
 
LRCV - Craiova, Romania
Ažurirano: 04/04/2020 06:00
Vedro
Vedro
 Pravac vetra I
Vetar: I 6 km/h
Temperatura: 4°C
Tačka rose: 3°C
Vlažnost: 93%
Pritisak: 1015 hPa
Pregled: Vedro
Vidljivost: greater than 10 km
2020/04/04 04:00 LRCV 040400Z 08003KT CAVOK 04/03 Q1015
LBSF - Sofia, Bulgaria
Ažurirano: 04/04/2020 06:00
Slaba kiša, Oblačno
Slaba kiša, Oblačno
 Pravac vetra I
Vetar: I 13 km/h
Temperatura: 6°C
Osećaj hladnoće: 3°C
Tačka rose: 3°C
Vlažnost: 81%
Pritisak: 1015 hPa
Pregled: Light Rain
Oblaci: Oblačno
Vidljivost: 10 km
Cloud details: Oblačno 1280 m
2020/04/04 04:00 LBSF 040400Z 10007KT 9999 -RA OVC042 06/03 Q1015 NOSIG
LWSK - Skoplje, Makedonija
Ažurirano: 04/04/2020 06:00
Light drizzle, Oblačno
Light drizzle, Oblačno
 Pravac vetra calm
Vetar: Tišina
Temperatura: 5°C
Tačka rose: 5°C
Vlažnost: 100%
Pritisak: 1016 hPa
Pregled: Light Drizzle
Oblaci: Oblačno
Vidljivost: 5 km
Cloud details: Partly Cloudy 305 m
Oblačno 792 m
2020/04/04 04:00 LWSK 040400Z 00000KT 5000 -DZ SCT010 OVC026 05/05 Q1016 NOSIG
 
LYPG - Podgorica, Crna Gora
Ažurirano: 04/04/2020 06:00
Mostly Cloudy
Mostly Cloudy
 Pravac vetra varies
Vetar: varies 4 km/h
Temperatura: 12°C
Tačka rose: 2°C
Vlažnost: 51%
Pritisak: 1011 hPa
Oblaci: Mostly Cloudy
Vidljivost: 10 km
Cloud details: Mostly Cloudy 3048 m
2020/04/04 04:00 LYPG 040400Z VRB02KT 9999 BKN100 12/02 Q1011 NOSIG
LQSA - Sarajevo, Bosna i Hercegovina
Ažurirano: 03/04/2020 16:30
NOT Current
Mostly Cloudy
Mostly Cloudy
 Pravac vetra SZ
Vetar: SZ 11 km/h
Temperatura: 14°C
Tačka rose: -1°C
Vlažnost: 36%
Pritisak: 1011 hPa
Oblaci: Mostly Cloudy
Vidljivost: 10 km
Cloud details: Mostly Cloudy 2134 m
2020/04/03 14:30 LQSA 031430Z 31006KT 260V030 9999 BKN070 14/M01 Q1011
LDOS - Osijek, Hrvatksa
Ažurirano: 04/04/2020 06:00
Vedro
Vedro
 Pravac vetra S
Vetar: S 15 km/h
Temperatura: 1°C
Osećaj hladnoće: -3°C
Tačka rose: -3°C
Vlažnost: 75%
Pritisak: 1018 hPa
Pregled: Vedro
Vidljivost: greater than 10 km
2020/04/04 04:00 LDOS 040400Z 35008KT CAVOK 01/M03 Q1018